Time;durP1;ratioP1;P1;durP2;ratioP2;P2;SDS_P1;SDS_P2;PMS_P1;PMS_P2;Temp;Humidity;BMP_temperature;BMP_pressure;BME280_temperature;BME280_humidity;BME280_pressure;Samples;Min_cycle;Max_cycle;Signal;HPM_P1;HPM_P2
2022/04/20 00:00:58;;;;;;;3.27;2.97;;;7.60;99.90;;;;;;5079696;28;20227;-66
2022/04/20 00:03:24;;;;;;;5.90;2.90;;;7.70;99.90;;;;;;5083285;28;20364;-66
2022/04/20 00:05:49;;;;;;;6.53;3.03;;;7.70;99.90;;;;;;5077931;28;20251;-65
2022/04/20 00:08:15;;;;;;;3.17;2.87;;;7.80;99.90;;;;;;5082950;28;20198;-66
2022/04/20 00:10:40;;;;;;;6.97;2.67;;;7.90;99.90;;;;;;5082043;28;20206;-65
2022/04/20 00:13:06;;;;;;;3.40;3.10;;;7.80;99.90;;;;;;5081098;28;20189;-65
2022/04/20 00:15:32;;;;;;;3.50;2.83;;;7.80;99.90;;;;;;5080105;28;20184;-65
2022/04/20 00:17:57;;;;;;;4.47;3.20;;;7.70;99.90;;;;;;5080109;28;20278;-65
2022/04/20 00:20:23;;;;;;;5.43;3.60;;;7.70;99.90;;;;;;5079853;28;20186;-66
2022/04/20 00:22:48;;;;;;;5.23;3.27;;;7.70;99.90;;;;;;5081590;28;20321;-65
2022/04/20 00:25:13;;;;;;;4.20;3.07;;;7.80;99.90;;;;;;5083389;28;20299;-66
2022/04/20 00:27:39;;;;;;;4.37;3.57;;;7.80;99.90;;;;;;5083844;28;20237;-65
2022/04/20 00:30:08;;;;;;;5.63;2.67;;;7.90;99.90;;;;;;5080065;28;20206;-66
2022/04/20 00:32:34;;;;;;;3.17;2.83;;;8.10;99.90;;;;;;5078333;28;20194;-65
2022/04/20 00:34:59;;;;;;;5.87;3.60;;;8.10;99.90;;;;;;5084444;28;20239;-65
2022/04/20 00:37:25;;;;;;;5.10;3.03;;;8.20;99.90;;;;;;5077268;28;20233;-64
2022/04/20 00:39:51;;;;;;;2.63;2.40;;;8.20;99.90;;;;;;5082497;28;20189;-65
2022/04/20 00:42:16;;;;;;;3.03;2.73;;;8.30;99.90;;;;;;5085743;28;20194;-63
2022/04/20 00:44:42;;;;;;;7.50;3.20;;;8.30;99.90;;;;;;5079919;28;20218;-66
2022/04/20 00:47:09;;;;;;;2.67;2.47;;;8.30;99.90;;;;;;5080283;28;20199;-65
2022/04/20 00:49:35;;;;;;;3.33;2.43;;;8.20;99.90;;;;;;5081311;28;20260;-64
2022/04/20 00:52:03;;;;;;;3.30;3.07;;;8.20;99.90;;;;;;5078663;28;20610;-64
2022/04/20 00:54:28;;;;;;;5.43;2.80;;;8.20;99.90;;;;;;5081417;28;20281;-65
2022/04/20 00:56:54;;;;;;;4.27;2.63;;;8.30;99.90;;;;;;5084948;28;20277;-65
2022/04/20 00:59:23;;;;;;;3.97;3.57;;;8.20;99.90;;;;;;5078206;28;20208;-64
2022/04/20 01:01:50;;;;;;;4.07;2.37;;;8.20;99.90;;;;;;5076960;28;20242;-64
2022/04/20 01:04:16;;;;;;;3.40;2.40;;;8.00;99.90;;;;;;5083665;28;20224;-65
2022/04/20 01:06:42;;;;;;;5.33;2.63;;;8.00;99.90;;;;;;5080914;28;20241;-65
2022/04/20 01:09:08;;;;;;;5.63;2.27;;;8.10;99.90;;;;;;5083649;28;20552;-65
2022/04/20 01:11:34;;;;;;;4.37;2.40;;;8.10;99.90;;;;;;5082259;28;20203;-64
2022/04/20 01:14:00;;;;;;;4.77;2.47;;;8.10;99.90;;;;;;5084175;28;20197;-64
2022/04/20 01:16:25;;;;;;;4.07;2.77;;;8.00;99.90;;;;;;5080624;28;20736;-65
2022/04/20 01:18:53;;;;;;;4.33;3.27;;;8.00;99.90;;;;;;5084664;28;21075;-64
2022/04/20 01:21:18;;;;;;;5.03;3.00;;;8.00;99.90;;;;;;5081741;28;20263;-65
2022/04/20 01:23:44;;;;;;;4.83;2.63;;;7.80;99.90;;;;;;5082382;28;20604;-65
2022/04/20 01:26:10;;;;;;;5.23;2.43;;;7.80;99.90;;;;;;5076687;28;20222;-65
2022/04/20 01:28:37;;;;;;;7.90;4.60;;;7.80;99.90;;;;;;5084104;28;20182;-64
2022/04/20 01:31:04;;;;;;;4.97;3.47;;;7.80;99.90;;;;;;5082690;28;20221;-65
2022/04/20 01:33:29;;;;;;;4.03;3.17;;;7.90;99.90;;;;;;5085418;28;20714;-65
2022/04/20 01:35:55;;;;;;;2.93;2.73;;;7.90;99.90;;;;;;5084010;28;20195;-67
2022/04/20 01:38:20;;;;;;;5.60;3.37;;;7.80;99.90;;;;;;5086488;28;20376;-80
2022/04/20 01:40:46;;;;;;;11.53;6.70;;;7.90;99.90;;;;;;5084049;28;20580;-65
2022/04/20 01:43:11;;;;;;;7.20;4.43;;;7.80;99.90;;;;;;5089237;28;20640;-65
2022/04/20 01:45:37;;;;;;;9.70;5.90;;;7.80;99.90;;;;;;5081611;28;20199;-66
2022/04/20 01:48:03;;;;;;;4.77;3.03;;;7.80;99.90;;;;;;5082292;28;21080;-66
2022/04/20 01:50:29;;;;;;;6.23;2.80;;;7.80;99.90;;;;;;5082530;28;20217;-67
2022/04/20 01:52:54;;;;;;;4.13;2.97;;;7.80;99.90;;;;;;5079877;28;20288;-65
2022/04/20 01:55:20;;;;;;;5.80;3.77;;;7.80;99.90;;;;;;5082517;28;20190;-65
2022/04/20 01:57:45;;;;;;;3.33;2.63;;;7.80;99.90;;;;;;5087136;28;20200;-66
2022/04/20 02:00:12;;;;;;;3.87;2.83;;;7.80;99.90;;;;;;5082340;28;20201;-66
2022/04/20 02:02:40;;;;;;;3.67;2.50;;;7.90;99.90;;;;;;5082489;28;20201;-65
2022/04/20 02:05:11;;;;;;;5.93;3.20;;;7.90;99.90;;;;;;5081719;28;20344;-66
2022/04/20 02:07:36;;;;;;;4.93;3.13;;;7.80;99.90;;;;;;5077443;28;20194;-65
2022/04/20 02:10:04;;;;;;;5.23;3.00;;;7.80;99.90;;;;;;5081099;28;20215;-65
2022/04/20 02:12:29;;;;;;;4.73;3.77;;;7.60;99.90;;;;;;5086411;28;20258;-66
2022/04/20 02:14:56;;;;;;;5.77;3.47;;;7.60;99.90;;;;;;5082245;28;20268;-66
2022/04/20 02:17:21;;;;;;;6.03;3.47;;;7.50;99.90;;;;;;5084396;28;20194;-65
2022/04/20 02:19:47;;;;;;;6.73;3.63;;;7.50;99.90;;;;;;5084658;28;20194;-66
2022/04/20 02:22:13;;;;;;;7.07;3.60;;;7.50;99.90;;;;;;5083716;28;20209;-65
2022/04/20 02:24:38;;;;;;;8.70;5.33;;;7.50;99.90;;;;;;5072940;28;20308;-66
2022/04/20 02:27:04;;;;;;;6.57;4.13;;;7.50;99.90;;;;;;5078357;28;20229;-65
2022/04/20 02:29:29;;;;;;;6.20;3.83;;;7.40;99.90;;;;;;5081572;28;20278;-65
2022/04/20 02:31:56;;;;;;;9.23;7.57;;;7.40;99.90;;;;;;5082395;28;20407;-66
2022/04/20 02:34:21;;;;;;;5.90;3.90;;;7.40;99.90;;;;;;5086552;28;20201;-66
2022/04/20 02:36:47;;;;;;;6.83;5.97;;;7.40;99.90;;;;;;5083071;28;20596;-65
2022/04/20 02:39:13;;;;;;;5.17;4.20;;;7.40;99.90;;;;;;5081518;28;20193;-65
2022/04/20 02:41:40;;;;;;;6.73;4.37;;;7.40;99.90;;;;;;5087309;28;20225;-65
2022/04/20 02:44:07;;;;;;;10.80;5.07;;;7.40;99.90;;;;;;5081836;28;20239;-64
2022/04/20 02:46:33;;;;;;;4.70;4.20;;;7.40;99.90;;;;;;5083865;28;20204;-65
2022/04/20 02:48:58;;;;;;;4.53;4.13;;;7.40;99.90;;;;;;5078957;28;20203;-65
2022/04/20 02:51:24;;;;;;;6.10;4.03;;;7.40;99.90;;;;;;5087192;28;20672;-65
2022/04/20 02:53:49;;;;;;;5.23;4.77;;;7.30;99.90;;;;;;5080453;28;20208;-66
2022/04/20 02:56:15;;;;;;;7.90;5.20;;;7.20;99.90;;;;;;5081276;28;20651;-64
2022/04/20 02:58:40;;;;;;;11.70;6.40;;;7.20;99.90;;;;;;5085023;28;20206;-65
2022/04/20 03:01:06;;;;;;;16.77;7.73;;;7.30;99.90;;;;;;5084573;28;20197;-66
2022/04/20 03:03:32;;;;;;;6.87;4.77;;;7.40;99.90;;;;;;5085107;28;20206;-66
2022/04/20 03:05:58;;;;;;;8.83;4.53;;;7.40;99.90;;;;;;5076440;28;20201;-59
2022/04/20 03:08:24;;;;;;;9.47;5.17;;;7.30;99.90;;;;;;5078764;28;20209;-60
2022/04/20 03:10:51;;;;;;;10.47;6.37;;;7.30;99.90;;;;;;5081258;28;20295;-59
2022/04/20 03:13:17;;;;;;;9.60;5.77;;;7.20;99.90;;;;;;5084563;28;20252;-58
2022/04/20 03:15:43;;;;;;;6.27;4.20;;;7.20;99.90;;;;;;5082006;28;20277;-59
2022/04/20 03:18:09;;;;;;;15.40;7.30;;;7.30;99.90;;;;;;5080651;28;20283;-59
2022/04/20 03:20:34;;;;;;;9.13;4.63;;;7.40;99.90;;;;;;5080447;28;20713;-59
2022/04/20 03:23:00;;;;;;;7.70;5.60;;;7.50;99.90;;;;;;5074142;28;20194;-60
2022/04/20 03:25:25;;;;;;;8.07;5.20;;;7.50;99.90;;;;;;5086085;28;20213;-62
2022/04/20 03:27:51;;;;;;;10.43;5.80;;;7.40;99.90;;;;;;5081237;28;20205;-59
2022/04/20 03:30:17;;;;;;;150.30;84.23;;;7.50;99.90;;;;;;5086305;28;20213;-61
2022/04/20 03:32:43;;;;;;;4.33;3.93;;;7.40;99.90;;;;;;5082419;28;20205;-59
2022/04/20 03:35:09;;;;;;;3.77;3.47;;;7.30;99.90;;;;;;5086038;28;20183;-60
2022/04/20 03:37:36;;;;;;;6.07;3.57;;;7.40;99.90;;;;;;5084217;28;20527;-61
2022/04/20 03:40:02;;;;;;;5.00;3.40;;;7.50;99.90;;;;;;5086566;28;20603;-60
2022/04/20 03:42:28;;;;;;;4.13;3.00;;;7.50;99.90;;;;;;5084325;28;20203;-60
2022/04/20 03:44:53;;;;;;;6.80;4.07;;;7.50;99.90;;;;;;5086680;28;20281;-60
2022/04/20 03:47:19;;;;;;;8.67;3.77;;;7.50;99.90;;;;;;5083717;28;20246;-60
2022/04/20 03:49:44;;;;;;;5.83;4.20;;;7.60;99.90;;;;;;5086374;28;20205;-60
2022/04/20 03:52:09;;;;;;;7.27;3.83;;;7.70;99.90;;;;;;5083811;28;20681;-61
2022/04/20 03:54:36;;;;;;;4.17;3.77;;;7.60;99.90;;;;;;5085834;28;20215;-60
2022/04/20 03:57:05;;;;;;;5.60;3.47;;;7.60;99.90;;;;;;5083944;28;20204;-59
2022/04/20 03:59:32;;;;;;;6.87;4.27;;;7.70;99.90;;;;;;5086180;28;20231;-62
2022/04/20 04:01:58;;;;;;;5.80;5.30;;;7.70;99.90;;;;;;5085667;28;20211;-60
2022/04/20 04:04:23;;;;;;;4.77;4.30;;;7.60;99.90;;;;;;5096169;28;20542;-58
2022/04/20 04:06:49;;;;;;;4.83;4.40;;;7.60;99.90;;;;;;5092585;28;20243;-58
2022/04/20 04:09:15;;;;;;;4.73;4.17;;;7.50;99.90;;;;;;5096836;28;20211;-58
2022/04/20 04:11:41;;;;;;;6.17;4.07;;;7.60;99.90;;;;;;5094330;28;20197;-58
2022/04/20 04:14:06;;;;;;;7.10;4.30;;;7.70;99.90;;;;;;5093421;28;20189;-58
2022/04/20 04:16:39;;;;;;;6.10;4.63;;;7.80;99.90;;;;;;5091215;28;20703;-58
2022/04/20 04:19:05;;;;;;;6.30;4.43;;;7.80;99.90;;;;;;5089467;28;20678;-57
2022/04/20 04:21:31;;;;;;;5.87;5.10;;;7.90;99.90;;;;;;5085877;28;20203;-57
2022/04/20 04:23:58;;;;;;;7.80;5.17;;;7.90;99.90;;;;;;5084376;28;20213;-63
2022/04/20 04:26:23;;;;;;;4.87;4.47;;;7.90;99.90;;;;;;5077149;28;20251;-57
2022/04/20 04:28:49;;;;;;;9.47;4.67;;;7.90;99.90;;;;;;5083242;28;20538;-57
2022/04/20 04:31:14;;;;;;;5.20;4.63;;;7.90;99.90;;;;;;5085875;28;20544;-57
2022/04/20 04:33:40;;;;;;;6.17;5.03;;;8.00;99.90;;;;;;5084398;28;20190;-57
2022/04/20 04:36:05;;;;;;;9.20;5.43;;;8.00;99.90;;;;;;5085368;28;20189;-57
2022/04/20 04:38:31;;;;;;;10.13;5.10;;;8.10;99.90;;;;;;5084112;28;20208;-58
2022/04/20 04:40:56;;;;;;;5.03;4.40;;;8.20;99.90;;;;;;5085648;28;20198;-57
2022/04/20 04:43:22;;;;;;;8.07;7.27;;;8.20;99.90;;;;;;5078651;28;20263;-57
2022/04/20 04:48:38;;;;;;;6.30;5.57;;;8.20;99.90;;;;;;5082608;28;20278;-59
2022/04/20 04:51:05;;;;;;;9.27;5.00;;;8.20;99.90;;;;;;5071761;28;20217;-57
2022/04/20 04:53:31;;;;;;;7.73;5.00;;;8.20;99.90;;;;;;5083684;28;20211;-56
2022/04/20 04:55:56;;;;;;;9.03;5.03;;;8.20;99.90;;;;;;5085472;28;20276;-56
2022/04/20 04:58:22;;;;;;;7.20;5.20;;;8.10;99.90;;;;;;5083831;28;20225;-56
2022/04/20 05:00:48;;;;;;;6.67;5.17;;;8.30;99.90;;;;;;5085383;28;20579;-56
2022/04/20 05:03:17;;;;;;;5.00;4.33;;;8.40;99.90;;;;;;5083396;28;20287;-56
2022/04/20 05:05:43;;;;;;;6.83;4.90;;;8.40;99.90;;;;;;5084776;28;20195;-56
2022/04/20 05:08:09;;;;;;;6.20;5.37;;;8.50;99.90;;;;;;5083389;28;20225;-57
2022/04/20 05:10:34;;;;;;;5.47;4.97;;;8.40;99.90;;;;;;5085329;28;20248;-57
2022/04/20 05:13:00;;;;;;;5.27;4.77;;;8.30;99.90;;;;;;5083251;28;20294;-57
2022/04/20 05:15:26;;;;;;;6.10;4.73;;;8.50;99.90;;;;;;5085176;28;20286;-58
2022/04/20 05:17:52;;;;;;;5.93;5.27;;;8.50;99.90;;;;;;5082833;28;20198;-58
2022/04/20 05:20:21;;;;;;;7.43;5.83;;;8.50;99.90;;;;;;5077993;28;20189;-58
2022/04/20 05:22:47;;;;;;;6.47;5.77;;;8.50;99.90;;;;;;5083195;28;20253;-58
2022/04/20 05:25:13;;;;;;;23.57;18.00;;;8.50;99.90;;;;;;5072968;28;20195;-59
2022/04/20 05:27:38;;;;;;;6.03;4.93;;;8.60;99.90;;;;;;5082966;28;20333;-58
2022/04/20 05:30:05;;;;;;;5.03;4.63;;;8.70;99.90;;;;;;5084838;28;20201;-58
2022/04/20 05:32:31;;;;;;;5.27;4.23;;;8.60;99.90;;;;;;5077495;28;20193;-56
2022/04/20 05:34:56;;;;;;;5.20;4.33;;;8.50;99.90;;;;;;5084963;28;20637;-56
2022/04/20 05:43:07;;;;;;;6.53;5.00;;;8.40;99.90;;;;;;5020492;28;20219;-56
2022/04/20 05:45:33;;;;;;;7.97;5.37;;;8.50;99.90;;;;;;5072565;28;20217;-57
2022/04/20 05:47:58;;;;;;;7.00;5.00;;;8.50;99.90;;;;;;5074369;28;20205;-57
2022/04/20 05:50:26;;;;;;;7.07;4.77;;;8.60;99.90;;;;;;5085167;28;20209;-59
2022/04/20 05:52:51;;;;;;;6.33;5.17;;;8.60;99.90;;;;;;5080126;28;20222;-57
2022/04/20 05:55:17;;;;;;;6.93;5.07;;;8.70;99.90;;;;;;5085068;28;20222;-57
2022/04/20 05:57:47;;;;;;;7.37;4.97;;;8.70;99.90;;;;;;5064542;28;20218;-57
2022/04/20 06:00:13;;;;;;;6.10;5.37;;;8.60;99.90;;;;;;5080426;28;20199;-58
2022/04/20 06:02:38;;;;;;;7.03;5.37;;;8.70;99.90;;;;;;5074691;28;20210;-59
2022/04/20 06:05:04;;;;;;;6.23;4.43;;;8.70;99.90;;;;;;5066607;28;20233;-57
2022/04/20 06:07:30;;;;;;;5.27;4.73;;;8.70;99.90;;;;;;5082890;28;20227;-58
2022/04/20 06:09:56;;;;;;;7.93;4.83;;;8.80;99.90;;;;;;5084854;28;20217;-57
2022/04/20 06:12:21;;;;;;;6.50;4.70;;;8.80;99.90;;;;;;5082791;28;20207;-58
2022/04/20 06:14:47;;;;;;;9.17;4.70;;;8.90;99.90;;;;;;5085271;28;20218;-57
2022/04/20 06:17:13;;;;;;;6.47;5.37;;;8.90;99.90;;;;;;5084183;28;20288;-58
2022/04/20 06:19:39;;;;;;;5.60;5.10;;;8.90;99.90;;;;;;5088398;28;20297;-59
2022/04/20 06:22:04;;;;;;;6.67;5.33;;;8.80;99.90;;;;;;5086617;28;20232;-56
2022/04/20 06:24:30;;;;;;;5.83;5.23;;;8.90;99.90;;;;;;5088608;28;20552;-58
2022/04/20 06:26:55;;;;;;;9.80;5.17;;;8.90;99.90;;;;;;5071418;28;20342;-58
2022/04/20 06:29:21;;;;;;;10.00;5.60;;;8.90;99.90;;;;;;5088515;28;20808;-57
2022/04/20 06:31:46;;;;;;;7.87;5.30;;;8.80;99.90;;;;;;5085987;28;20201;-59
2022/04/20 06:34:12;;;;;;;5.30;4.73;;;8.80;99.90;;;;;;5088820;28;20281;-59
2022/04/20 06:36:37;;;;;;;5.40;4.87;;;8.90;99.90;;;;;;5088077;28;20182;-59
2022/04/20 06:39:03;;;;;;;7.03;5.20;;;8.90;99.90;;;;;;5086230;28;20198;-57
2022/04/20 06:41:29;;;;;;;5.87;4.80;;;9.00;99.90;;;;;;5087992;28;20195;-59
2022/04/20 06:43:54;;;;;;;7.47;4.67;;;9.00;99.90;;;;;;5086334;28;20204;-59
2022/04/20 06:46:20;;;;;;;5.57;4.80;;;8.80;99.90;;;;;;5088113;28;20287;-57
2022/04/20 06:48:45;;;;;;;7.30;5.37;;;8.80;99.90;;;;;;5085969;28;20200;-57
2022/04/20 06:51:11;;;;;;;4.50;4.10;;;9.00;99.90;;;;;;5087827;28;20698;-57
2022/04/20 06:59:04;;;;;;;5.23;4.83;;;9.40;99.90;;;;;;5085863;28;20214;-59
2022/04/20 07:01:29;;;;;;;6.07;4.77;;;9.40;99.90;;;;;;5087502;28;20697;-58
2022/04/20 07:03:55;;;;;;;5.13;4.60;;;9.70;99.90;;;;;;5085466;28;20194;-58
2022/04/20 07:06:20;;;;;;;5.90;4.67;;;9.90;99.90;;;;;;5087905;28;20209;-58
2022/04/20 07:08:48;;;;;;;10.60;4.67;;;9.90;99.90;;;;;;5085864;28;20199;-58
2022/04/20 07:11:13;;;;;;;4.67;4.27;;;10.00;99.90;;;;;;5087657;28;20220;-58
2022/04/20 07:13:39;;;;;;;5.90;4.17;;;9.90;99.90;;;;;;5085329;28;20191;-58
2022/04/20 07:16:05;;;;;;;6.73;4.50;;;10.00;99.90;;;;;;5085898;28;20195;-58
2022/04/20 07:18:30;;;;;;;4.73;3.83;;;10.00;99.90;;;;;;5085895;28;20340;-58
2022/04/20 07:20:56;;;;;;;5.17;3.87;;;10.20;99.90;;;;;;5087206;28;20199;-58
2022/04/20 07:23:21;;;;;;;4.17;3.60;;;10.30;99.90;;;;;;5085564;28;20231;-57
2022/04/20 07:25:47;;;;;;;4.03;3.60;;;10.40;99.90;;;;;;5086476;28;20302;-59
2022/04/20 07:28:12;;;;;;;4.60;3.53;;;10.40;99.90;;;;;;5084494;28;20567;-58
2022/04/20 07:30:38;;;;;;;6.10;4.47;;;10.40;99.90;;;;;;5087210;28;20219;-59
2022/04/20 07:33:04;;;;;;;4.30;3.50;;;10.50;99.90;;;;;;5085851;28;20561;-58
2022/04/20 07:35:30;;;;;;;4.97;3.40;;;10.60;99.90;;;;;;5086941;28;20195;-59
2022/04/20 07:37:56;;;;;;;4.27;3.87;;;10.60;99.90;;;;;;5078611;28;20204;-58
2022/04/20 07:40:23;;;;;;;6.10;3.70;;;10.70;99.90;;;;;;5087399;28;20194;-61
2022/04/20 07:42:53;;;;;;;5.70;3.83;;;10.70;99.90;;;;;;5085236;28;20748;-59
2022/04/20 07:45:18;;;;;;;4.60;3.53;;;10.60;99.90;;;;;;5087256;28;20200;-61
2022/04/20 07:47:43;;;;;;;6.03;3.30;;;10.60;99.90;;;;;;5085067;28;20209;-59
2022/04/20 07:50:18;;;;;;;3.37;3.07;;;10.60;99.90;;;;;;5086433;28;20244;-57
2022/04/20 07:52:49;;;;;;;4.03;3.60;;;10.80;99.90;;;;;;5085041;28;20258;-58
2022/04/20 07:55:34;;;;;;;4.10;3.73;;;10.90;99.90;;;;;;5085024;28;20221;-59
2022/04/20 07:58:01;;;;;;;5.33;3.07;;;10.90;99.90;;;;;;5089397;28;20224;-58
2022/04/20 08:00:27;;;;;;;3.03;2.73;;;10.90;99.90;;;;;;5086534;28;20203;-59
2022/04/20 08:03:16;;;;;;;4.73;3.60;;;10.90;99.90;;;;;;5084460;28;20620;-59
2022/04/20 08:05:42;;;;;;;7.23;3.70;;;11.00;99.90;;;;;;5086397;28;20656;-58
2022/04/20 08:08:10;;;;;;;5.90;3.50;;;11.20;99.50;;;;;;5077168;28;20219;-58
2022/04/20 08:10:38;;;;;;;3.47;3.03;;;11.30;98.60;;;;;;5086211;28;20543;-58
2022/04/20 08:14:09;;;;;;;5.73;4.63;;;11.30;98.50;;;;;;5082512;28;20188;-59
2022/04/20 08:15:50;;;;;;;5.87;3.30;;;11.50;98.20;;;;;;5086260;28;20186;-59
2022/04/20 08:18:16;;;;;;;4.37;3.13;;;11.80;97.10;;;;;;5084237;28;20186;-60
2022/04/20 08:20:42;;;;;;;4.70;3.17;;;11.90;96.40;;;;;;5086632;28;20650;-59
2022/04/20 08:23:07;;;;;;;5.07;3.30;;;12.00;94.60;;;;;;5084385;28;20286;-58
2022/04/20 08:25:33;;;;;;;4.60;2.60;;;12.00;94.60;;;;;;5086296;28;20283;-58
2022/04/20 08:27:58;;;;;;;4.00;2.37;;;12.20;95.00;;;;;;5084234;28;20749;-58
2022/04/20 08:30:24;;;;;;;5.43;2.80;;;12.50;95.00;;;;;;5086458;28;20202;-59
2022/04/20 08:32:49;;;;;;;4.33;2.27;;;12.50;94.30;;;;;;5084115;28;20535;-60
2022/04/20 08:35:15;;;;;;;4.17;2.97;;;12.50;93.20;;;;;;5086097;28;20597;-60
2022/04/20 08:37:41;;;;;;;2.80;2.60;;;12.70;93.00;;;;;;5084145;28;20182;-60
2022/04/20 08:40:07;;;;;;;3.07;2.77;;;12.70;92.50;;;;;;5085964;28;20166;-59
2022/04/20 08:42:35;;;;;;;3.47;2.40;;;12.70;92.80;;;;;;5083924;28;20230;-60
2022/04/20 08:45:04;;;;;;;2.97;2.67;;;12.70;91.80;;;;;;5086399;28;20169;-59
2022/04/20 08:47:36;;;;;;;3.03;1.93;;;12.70;91.90;;;;;;5083972;28;20236;-59
2022/04/20 08:50:03;;;;;;;2.53;2.30;;;12.70;90.80;;;;;;5085561;28;20582;-59
2022/04/20 08:52:38;;;;;;;3.13;2.10;;;12.90;88.20;;;;;;5083611;28;20206;-59
2022/04/20 08:55:13;;;;;;;2.57;1.80;;;12.80;86.90;;;;;;5086013;28;20223;-59
2022/04/20 08:57:39;;;;;;;3.90;1.67;;;12.60;86.40;;;;;;5084207;28;20224;-60
2022/04/20 09:00:07;;;;;;;2.57;1.80;;;12.40;86.10;;;;;;5085811;28;20184;-59
2022/04/20 09:02:33;;;;;;;4.00;1.93;;;12.30;85.90;;;;;;5083930;28;20197;-59
2022/04/20 09:04:58;;;;;;;1.67;1.47;;;12.20;87.70;;;;;;5086141;28;20178;-59
2022/04/20 09:07:25;;;;;;;2.00;1.73;;;12.10;88.90;;;;;;5083802;28;20611;-59
2022/04/20 09:09:50;;;;;;;2.23;1.83;;;12.00;89.90;;;;;;5085902;28;20233;-59
2022/04/20 09:12:18;;;;;;;2.57;1.87;;;12.10;90.80;;;;;;5085703;28;20223;-58
2022/04/20 09:14:48;;;;;;;4.30;2.53;;;12.10;90.40;;;;;;5077608;28;20753;-60
2022/04/20 09:17:18;;;;;;;2.97;2.20;;;12.10;91.50;;;;;;5085738;28;20635;-58
2022/04/20 09:19:55;;;;;;;5.67;2.33;;;12.10;91.80;;;;;;5077717;28;20193;-58
2022/04/20 09:22:24;;;;;;;7.00;3.17;;;12.10;92.20;;;;;;5067717;28;20188;-59
2022/04/20 09:25:08;;;;;;;4.27;2.40;;;12.10;92.90;;;;;;5085447;28;20296;-57
2022/04/20 09:27:39;;;;;;;5.20;2.60;;;12.10;93.00;;;;;;5083582;28;20226;-59
2022/04/20 09:30:10;;;;;;;3.90;2.63;;;11.90;93.30;;;;;;5085783;28;20202;-57
2022/04/20 09:32:37;;;;;;;2.57;2.20;;;12.00;93.90;;;;;;5082768;28;20186;-59
2022/04/20 09:35:08;;;;;;;5.80;2.43;;;11.90;94.40;;;;;;5085587;28;20721;-59
2022/04/20 09:37:36;;;;;;;1.90;1.80;;;12.00;95.20;;;;;;5082452;28;20666;-59
2022/04/20 09:40:06;;;;;;;4.33;2.93;;;11.90;96.20;;;;;;5085688;28;20186;-59
2022/04/20 09:42:34;;;;;;;3.73;3.43;;;12.00;97.40;;;;;;5083591;28;20672;-59
2022/04/20 09:45:02;;;;;;;4.07;2.27;;;12.10;98.70;;;;;;5085608;28;20290;-60
2022/04/20 09:50:22;;;;;;;3.53;2.17;;;12.30;98.90;;;;;;5085730;28;20665;-59
2022/04/20 09:52:49;;;;;;;2.23;1.90;;;12.40;99.20;;;;;;5085769;28;20189;-58
2022/04/20 09:55:25;;;;;;;2.53;2.30;;;12.50;97.40;;;;;;5089405;28;20174;-59
2022/04/20 09:57:51;;;;;;;2.40;2.20;;;12.70;97.50;;;;;;5084592;28;20197;-58
2022/04/20 10:00:16;;;;;;;2.70;2.10;;;12.80;96.70;;;;;;5097251;28;20639;-58
2022/04/20 10:02:50;;;;;;;4.03;1.80;;;12.80;95.70;;;;;;5093713;28;20189;-59
2022/04/20 10:05:17;;;;;;;3.57;2.43;;;12.90;96.40;;;;;;5098062;28;20733;-58
2022/04/20 10:07:43;;;;;;;3.17;2.37;;;13.10;96.90;;;;;;5095404;28;20255;-59
2022/04/20 10:10:10;;;;;;;1.90;1.70;;;13.30;95.00;;;;;;5099081;28;20196;-60
2022/04/20 10:12:41;;;;;;;2.90;2.10;;;13.30;94.60;;;;;;5092291;28;20178;-58
2022/04/20 10:17:57;;;;;;;2.90;2.10;;;13.60;95.10;;;;;;5093753;28;20234;-57
2022/04/20 10:20:26;;;;;;;3.00;2.30;;;13.70;94.20;;;;;;5095991;28;20956;-59
2022/04/20 10:22:53;;;;;;;2.97;2.40;;;13.90;95.70;;;;;;5095281;28;20350;-59
2022/04/20 10:25:20;;;;;;;3.13;1.97;;;13.90;95.00;;;;;;5094299;28;20659;-58
2022/04/20 10:27:57;;;;;;;2.27;2.07;;;13.80;94.80;;;;;;5093952;28;20209;-59
2022/04/20 10:30:44;;;;;;;2.30;2.10;;;14.00;95.50;;;;;;5097167;28;20213;-59
2022/04/20 10:33:13;;;;;;;2.43;2.23;;;14.10;96.10;;;;;;5096227;28;20752;-59
2022/04/20 10:36:04;;;;;;;3.70;2.30;;;14.10;95.70;;;;;;5098657;28;21661;-59
2022/04/20 10:38:31;;;;;;;2.70;2.50;;;13.90;95.20;;;;;;5095539;28;20822;-60
2022/04/20 10:41:12;;;;;;;2.50;2.30;;;14.00;95.20;;;;;;5087925;28;20196;-61
2022/04/20 10:43:44;;;;;;;3.00;2.00;;;14.00;95.30;;;;;;5077745;28;20232;-60
2022/04/20 10:46:17;;;;;;;2.50;2.27;;;14.20;95.90;;;;;;5075029;28;20231;-66
2022/04/20 10:48:51;;;;;;;4.80;2.30;;;14.10;96.20;;;;;;5078330;28;20698;-65
2022/04/20 10:51:30;;;;;;;5.43;2.53;;;13.70;95.40;;;;;;5087348;28;20205;-65
2022/04/20 10:54:23;;;;;;;2.50;2.20;;;13.40;96.10;;;;;;5080529;28;20197;-65
2022/04/20 10:56:49;;;;;;;3.50;2.27;;;13.20;96.30;;;;;;5084333;28;20187;-64
2022/04/20 10:59:15;;;;;;;2.43;2.20;;;13.30;96.20;;;;;;5086304;28;20206;-72
2022/04/20 11:01:59;;;;;;;4.67;2.23;;;13.40;96.70;;;;;;5093754;28;20186;-68
2022/04/20 11:04:46;;;;;;;2.70;2.47;;;13.30;97.00;;;;;;5084317;28;20198;-67
2022/04/20 11:07:23;;;;;;;2.63;2.33;;;13.10;97.00;;;;;;5092196;28;20213;-68
2022/04/20 11:09:56;;;;;;;3.20;2.30;;;13.10;96.80;;;;;;5093499;28;20200;-64
2022/04/20 11:21:03;;;;;;;3.93;1.80;;;13.20;96.10;;;;;;5085283;28;20188;-66
2022/04/20 11:24:01;;;;;;;6.40;2.53;;;13.40;96.20;;;;;;5084757;28;20205;-67
2022/04/20 11:26:35;;;;;;;3.77;2.37;;;13.50;97.00;;;;;;5086289;28;20240;-66
2022/04/20 11:29:08;;;;;;;6.20;2.53;;;13.50;96.50;;;;;;5084191;28;20197;-66
2022/04/20 11:31:38;;;;;;;4.20;2.17;;;13.40;96.80;;;;;;5087594;28;20181;-69
2022/04/20 11:34:05;;;;;;;3.63;2.33;;;13.50;96.60;;;;;;5084225;28;20679;-68
2022/04/20 11:36:31;;;;;;;3.03;2.30;;;13.30;96.00;;;;;;5086472;28;20186;-68
2022/04/20 11:38:57;;;;;;;2.80;2.10;;;13.30;97.10;;;;;;5085472;28;20550;-71
2022/04/20 11:41:23;;;;;;;3.13;2.13;;;13.30;95.50;;;;;;5086879;28;20204;-67
2022/04/20 11:43:51;;;;;;;4.97;2.33;;;13.30;95.60;;;;;;5084958;28;20280;-68
2022/04/20 11:46:18;;;;;;;3.20;2.30;;;13.10;95.90;;;;;;5086510;28;20652;-67
2022/04/20 11:48:54;;;;;;;2.60;2.23;;;13.00;96.00;;;;;;5085002;28;20742;-67
2022/04/20 11:51:23;;;;;;;5.20;2.50;;;12.90;96.00;;;;;;5066015;28;20271;-67
2022/04/20 11:53:48;;;;;;;2.13;1.90;;;12.90;96.30;;;;;;5084534;28;20205;-71
2022/04/20 11:56:15;;;;;;;1.90;1.80;;;12.90;97.00;;;;;;5086256;28;20509;-67
2022/04/20 11:58:41;;;;;;;2.27;2.10;;;13.10;96.50;;;;;;5084593;28;20225;-67
2022/04/20 12:01:07;;;;;;;3.10;1.73;;;13.30;95.40;;;;;;5086334;28;20612;-67
2022/04/20 12:03:37;;;;;;;3.73;2.50;;;13.30;95.30;;;;;;5083020;28;20212;-68
2022/04/20 12:06:08;;;;;;;2.70;2.40;;;13.40;95.60;;;;;;5085764;28;21045;-67
2022/04/20 12:08:36;;;;;;;1.70;1.60;;;13.50;94.70;;;;;;5082264;28;20225;-70
2022/04/20 12:11:06;;;;;;;4.27;3.17;;;13.40;95.50;;;;;;5086019;28;20209;-70
2022/04/20 12:13:32;;;;;;;3.20;2.80;;;13.60;95.10;;;;;;5084534;28;20202;-72
2022/04/20 12:16:09;;;;;;;4.87;2.47;;;13.70;94.60;;;;;;5086684;28;20270;-77
2022/04/20 12:18:46;;;;;;;3.60;2.47;;;13.60;94.90;;;;;;5084564;28;20560;-68
2022/04/20 12:21:46;;;;;;;2.87;1.90;;;13.30;94.90;;;;;;5085754;28;20268;-70
2022/04/20 12:24:37;;;;;;;6.13;2.60;;;13.20;95.00;;;;;;5083066;28;20204;-71
2022/04/20 12:27:02;;;;;;;5.27;3.37;;;13.10;95.30;;;;;;5084746;28;20953;-69
2022/04/20 12:29:32;;;;;;;4.90;2.80;;;13.30;94.90;;;;;;5083851;28;20524;-69
2022/04/20 12:31:58;;;;;;;3.40;2.30;;;13.40;95.50;;;;;;5086094;28;20191;-65
2022/04/20 12:34:26;;;;;;;3.17;2.30;;;13.40;94.60;;;;;;5083764;28;20204;-69
2022/04/20 12:37:08;;;;;;;2.53;2.33;;;13.60;94.40;;;;;;5083837;28;20185;-68
2022/04/20 12:39:36;;;;;;;2.57;2.37;;;14.10;94.50;;;;;;5084453;28;20216;-67
2022/04/20 12:42:06;;;;;;;2.53;2.37;;;14.50;93.70;;;;;;5085042;28;20243;-67
2022/04/20 12:44:34;;;;;;;3.03;2.37;;;14.50;92.90;;;;;;5083221;28;20209;-67
2022/04/20 12:47:00;;;;;;;3.27;2.97;;;14.60;92.90;;;;;;5084916;28;20193;-67
2022/04/20 12:49:26;;;;;;;5.87;2.77;;;14.50;92.80;;;;;;5084026;28;20289;-66
2022/04/20 12:51:51;;;;;;;3.07;2.73;;;14.60;93.20;;;;;;5085970;28;20660;-66
2022/04/20 12:54:24;;;;;;;2.50;2.20;;;14.70;92.70;;;;;;5083960;28;20202;-67
2022/04/20 13:02:19;;;;;;;3.77;2.67;;;14.50;93.10;;;;;;5084067;28;20321;-67
2022/04/20 13:04:49;;;;;;;3.37;2.50;;;14.60;92.80;;;;;;5085720;28;20636;-67
2022/04/20 13:07:14;;;;;;;2.63;2.43;;;14.40;92.50;;;;;;5084777;28;20247;-68
2022/04/20 13:09:40;;;;;;;3.00;2.63;;;14.30;92.90;;;;;;5083717;28;20241;-66
2022/04/20 13:12:06;;;;;;;2.70;2.43;;;14.40;93.00;;;;;;5085711;28;20197;-74
2022/04/20 13:14:32;;;;;;;4.90;3.43;;;14.40;92.90;;;;;;5083349;28;20201;-66
2022/04/20 13:16:57;;;;;;;4.70;2.77;;;14.40;93.00;;;;;;5083351;28;20242;-66
2022/04/20 13:19:23;;;;;;;4.77;2.73;;;14.40;92.40;;;;;;5082818;28;20208;-66
2022/04/20 13:21:49;;;;;;;2.53;2.33;;;14.40;92.90;;;;;;5084916;28;20193;-68
2022/04/20 13:27:54;;;;;;;3.20;2.83;;;14.40;92.40;;;;;;5082591;28;20194;-66
2022/04/20 13:29:46;;;;;;;2.70;2.37;;;14.20;92.00;;;;;;5085602;28;20220;-66
2022/04/20 13:32:12;;;;;;;2.50;2.27;;;14.10;92.20;;;;;;5084943;28;20275;-66